Aktuell sind 116 Gäste und 2 Mitglieder online

[source: ADDS]
METAR
EDVE 241650Z 29008KT 260V320 CAVOK 12/03 Q1009

EDDV 241650Z 27009KT 9999 VCSH FEW030 BKN060 10/06 Q1009 NOSIG

ETHS 241620Z 26015KT 9999 SCT030 BKN050 10/05 Q1008 BLU

ETHC 241620Z 26010KT 9999 BKN045 09/05 Q1009 BLU FCST CANCEL

EDVK 241650Z 26007KT CAVOK 13/01 Q1010

TAF
TAF EDVE 241400Z 2415/2421 26015KT 9999 SCT040 TEMPO 2415/2416 26015G30KT BECMG 2416/2420 22006KT

TAF EDDV 241100Z 2412/2512 24015KT 9999 SCT040 TEMPO 2412/2416 25015G30KT BECMG 2416/2418 22008KT PROB30 TEMPO 2417/2419 BKN012 BECMG 2419/2421 30006KT 4500 -RADZ BKN012 TEMPO 2420/2509 VRB03KT 2500 DZRA BKN006 BECMG 2507/2509 22006KT 9999 BKN030 BECMG 2509/2511 26011KT

TAF AMD ETHS 241451Z 2414/2423 26015G25KT 9999 NSW BKN040 BECMG 2415/2417 28010KT 8000 -RA BKN025 TEMPO 2417/2423 29012KT 5000 RA SCT010 BKN015 CANCEL 1520

TAF AMD ETHC 241604Z 2414/2423 24015G28KT 9999 NSW BKN050 BECMG 2417/2419 25008KT 8000 -RA SCT012 BKN020 TEMPO 2418/2423 21003KT 5000 RA BKN012 CANCEL 1630

TAF EDVK 241400Z 2415/2424 24010KT CAVOK BECMG 2418/2421 22004KT

SR / SS: 03:59 / 18:32 UTC (EDVE 2017-04-24)
Neue Aquila 211 mit NVFR Zulassung und Glascockpit bestellt! ETA April 2017! +++ Herzlich Willkommen im Verein Mike! +++ Georg startet seine Ausbildung! Viel Erfolg und always happy landings! +++ Wir begrüßen Lasse als neues Mitglied im Verein und wünschen always happy landings! +++ Hallo und herzlichen Willkommen im Verein Thomas! +++ Die Termine für den nächsten BZF Kurs sind online! +++ Lukas hat das BZF bestanden! Herzlichen Glückwunsch! +++ Die Mitgliederversammlung am 20.12.2016 genehmigt den Antrag zur Flottenerneuerung +++ Alexander hat seine PPL(A)-Prüfung bestanden! Herzlichen Glückwunsch und Always Happy Landings! +++ Heinrich hat sich freigeflogen. Herzlichen Glückwunsch und always happy landings! +++ Wir wünschen Klaus viel Erfolg bei seiner Ausbildung! +++ Herzlichen Willkommen im Verein Uwe! Viel Spaß bei deiner Ausbildung! +++ Gunnar hat seine LAPL-Prüfung bestanden! Herzlichen Glückwunsch und always happy landings! +++ Christian hat die Theoretische Prüfung bestanden! Herzlichen Glückwunsch! +++ Wir begrüßen drei neue Mitglieder im Verein! Herzlich Willkommen, Florian, Petra und Jürgen! +++

 

Das Prinzip des Heizgerätes zum Vorheizen unserer Flugzeuge ist einfach: Ein Gasbrenner erhitzt Luft und bläst sie in eine Blechkiste. Dort beschleunigt ein großer Lüfter die Luft und drückt sie durch Luftschläuche in den Motorraum eines Flugzeuges. Nach etwa 20-30 Minuten Vorheizzeit ist eine ausreichende Temperatur zum Motorstart vorhanden.

Weiterlesen ...

Auch im Winter stehen unsere Flugzeuge sicher untergebracht in unserer Halle. Schneelast- und sturmwinderprobt ist sie bereits und hat diese Wettereinflüsse prima überstanden. Im Winter sind bei Schnee und Eis ein paar Erfahrungswerte nützlich:

Weiterlesen ...

Die Halle erlaubt eine einfache Aufstellung der Luftfahrzeuge. Jedem Flugzeug ist ein fester Platz zugewiesen der es erlaubt, mit geringem Aufwand das gewünschte Flugzeug nach vorne zu holen. Ziel bei der gewählten Aufstellung ist es,

Weiterlesen ...

Das Tor der Halle ist ein sogenanntes Planentor, es funktioniert ungefähr so wie ein Duschvorhang. Die linke und die rechte Hälfte des Tores waren in der Mitte durch sechs Gurte verbunden (drei an der Innenseite, drei an der Außenseite), wenn das Tor geschlossen ist.

Der obere Gurt (innen und außen) ist für normal große Leute

Weiterlesen ...

Die installierte elektrische Anlage ist wartungsfrei. Das Licht wird automatisch, durch Bewegungssensoren gesteuert, ein- und ausgeschaltet.

Weiterlesen ...

Letztes NOTAM EDVE
von 13.04.2017 1040Z bis 12.07.2017 1500Z
TWY H LIMITED. FOR INFORMATION CONTACT GENERAL AVIATION TERMINAL PRIOR USE.

Letztes NOTAM EDBC
von 08.03.2017 1332Z bis 05.06.2017 2359Z
THE FOLLOWING CHANGES TO SID OCCUR: RWY 08: SID ABGUS 1L ADD: PDG 4.3 PER CENT (262FT/NM) OR MORE UNTIL PASSING 7000FT AMSL. CROSS AB [more]

Letztes NOTAM EDVM
von 25.04.2017 0700Z bis 05.05.2017 1800Z
LIMITED USAGE TWY J AND E DUE TO WORKS ON TWY.

Letztes NOTAM EDOV
von 28.04.2017 0700Z bis 30.04.2017 2359Z
NO FUEL AVBL DUE TO EVENT.

Letztes NOTAM EDDV
von 08.06.2017 0800Z bis 08.06.2017 1000Z
WARBURG DVOR/DME WRB 113.70/CH84X, DVOR PART ON MAINT. DO NOT USE, FALSE INDICATIONS POSS.

Letztes NOTAM EDVK
von 08.06.2017 0800Z bis 08.06.2017 1000Z
WARBURG DVOR/DME WRB 113.70/CH84X, DVOR PART ON MAINT. DO NOT USE, FALSE INDICATIONS POSS.

Letztes NOTAM ETHS
von 24.04.2017 1200Z bis 26.04.2017 1500Z
MON TUE WED 1200-1500
PAR RWY27 U/S.

EDCB.png          aerodata150     Radio38